sensor_id;sensor_type;location;lat;lon;timestamp;pressure;altitude;pressure_sealevel;temperature;humidity
35435;BME280;21556;55.782;37.528;2023-05-02T00:00:41;100224.06;;;7.74;100.00
35435;BME280;21556;55.782;37.528;2023-05-02T00:03:07;100221.97;;;7.64;100.00
35435;BME280;21556;55.782;37.528;2023-05-02T00:05:33;100227.13;;;7.86;100.00
35435;BME280;21556;55.782;37.528;2023-05-02T00:08:02;100229.47;;;7.79;100.00
35435;BME280;21556;55.782;37.528;2023-05-02T00:10:28;100231.28;;;7.57;100.00
35435;BME280;21556;55.782;37.528;2023-05-02T00:12:54;100227.84;;;7.82;100.00
35435;BME280;21556;55.782;37.528;2023-05-02T00:15:20;100229.50;;;7.80;100.00
35435;BME280;21556;55.782;37.528;2023-05-02T00:17:46;100228.94;;;7.65;100.00
35435;BME280;21556;55.782;37.528;2023-05-02T00:20:11;100238.19;;;7.79;100.00
35435;BME280;21556;55.782;37.528;2023-05-02T00:22:37;100246.16;;;7.84;100.00
35435;BME280;21556;55.782;37.528;2023-05-02T00:25:04;100245.44;;;7.88;100.00
35435;BME280;21556;55.782;37.528;2023-05-02T00:27:31;100250.81;;;7.67;100.00
35435;BME280;21556;55.782;37.528;2023-05-02T00:29:59;100252.91;;;7.77;100.00
35435;BME280;21556;55.782;37.528;2023-05-02T00:32:26;100254.53;;;7.51;100.00
35435;BME280;21556;55.782;37.528;2023-05-02T00:34:52;100260.78;;;7.55;100.00
35435;BME280;21556;55.782;37.528;2023-05-02T00:37:20;100266.84;;;7.54;100.00
35435;BME280;21556;55.782;37.528;2023-05-02T00:39:46;100265.97;;;7.31;100.00
35435;BME280;21556;55.782;37.528;2023-05-02T00:42:11;100270.97;;;7.26;100.00
35435;BME280;21556;55.782;37.528;2023-05-02T00:44:37;100265.44;;;7.17;100.00
35435;BME280;21556;55.782;37.528;2023-05-02T00:47:05;100274.44;;;7.25;100.00
35435;BME280;21556;55.782;37.528;2023-05-02T00:49:31;100274.34;;;7.44;100.00
35435;BME280;21556;55.782;37.528;2023-05-02T00:51:57;100276.81;;;7.41;100.00
35435;BME280;21556;55.782;37.528;2023-05-02T00:54:23;100278.44;;;7.62;100.00
35435;BME280;21556;55.782;37.528;2023-05-02T00:56:49;100277.34;;;7.33;100.00
35435;BME280;21556;55.782;37.528;2023-05-02T00:59:15;100289.03;;;7.42;100.00
35435;BME280;21556;55.782;37.528;2023-05-02T01:01:59;100286.53;;;7.45;100.00
35435;BME280;21556;55.782;37.528;2023-05-02T01:13:10;100302.09;;;7.42;100.00
35435;BME280;21556;55.782;37.528;2023-05-02T01:15:40;100297.13;;;7.48;100.00
35435;BME280;21556;55.782;37.528;2023-05-02T01:18:11;100300.91;;;7.34;100.00
35435;BME280;21556;55.782;37.528;2023-05-02T01:20:41;100307.88;;;7.13;100.00
35435;BME280;21556;55.782;37.528;2023-05-02T01:29:07;100314.75;;;7.11;100.00
35435;BME280;21556;55.782;37.528;2023-05-02T01:31:36;100325.78;;;7.04;100.00
35435;BME280;21556;55.782;37.528;2023-05-02T01:34:03;100320.41;;;7.00;100.00
35435;BME280;21556;55.782;37.528;2023-05-02T01:36:31;100318.59;;;7.19;100.00
35435;BME280;21556;55.782;37.528;2023-05-02T01:38:59;100324.69;;;6.98;100.00
35435;BME280;21556;55.782;37.528;2023-05-02T01:41:27;100337.44;;;6.70;100.00
35435;BME280;21556;55.782;37.528;2023-05-02T01:43:59;100339.97;;;6.89;100.00
35435;BME280;21556;55.782;37.528;2023-05-02T01:46:32;100345.25;;;6.70;100.00
35435;BME280;21556;55.782;37.528;2023-05-02T01:49:02;100347.34;;;6.58;100.00
35435;BME280;21556;55.782;37.528;2023-05-02T01:51:32;100352.00;;;6.65;100.00
35435;BME280;21556;55.782;37.528;2023-05-02T01:54:02;100348.03;;;6.74;100.00
35435;BME280;21556;55.782;37.528;2023-05-02T01:56:32;100345.53;;;6.76;100.00
35435;BME280;21556;55.782;37.528;2023-05-02T01:59:01;100352.66;;;6.61;100.00
35435;BME280;21556;55.782;37.528;2023-05-02T02:01:29;100363.09;;;6.61;100.00
35435;BME280;21556;55.782;37.528;2023-05-02T02:03:56;100357.66;;;6.96;100.00
35435;BME280;21556;55.782;37.528;2023-05-02T02:06:24;100355.31;;;7.03;100.00
35435;BME280;21556;55.782;37.528;2023-05-02T02:08:50;100358.03;;;7.06;100.00
35435;BME280;21556;55.782;37.528;2023-05-02T02:11:25;100363.00;;;6.99;100.00
35435;BME280;21556;55.782;37.528;2023-05-02T02:14:05;100369.69;;;7.14;100.00
35435;BME280;21556;55.782;37.528;2023-05-02T02:16:54;100385.16;;;6.88;100.00
35435;BME280;21556;55.782;37.528;2023-05-02T02:19:22;100376.69;;;6.73;100.00
35435;BME280;21556;55.782;37.528;2023-05-02T02:21:49;100388.59;;;6.87;100.00
35435;BME280;21556;55.782;37.528;2023-05-02T02:24:17;100393.53;;;6.81;100.00
35435;BME280;21556;55.782;37.528;2023-05-02T02:26:46;100389.78;;;6.95;100.00
35435;BME280;21556;55.782;37.528;2023-05-02T02:29:11;100397.81;;;6.79;100.00
35435;BME280;21556;55.782;37.528;2023-05-02T02:31:38;100404.66;;;6.77;100.00
35435;BME280;21556;55.782;37.528;2023-05-02T02:34:04;100399.63;;;6.82;100.00
35435;BME280;21556;55.782;37.528;2023-05-02T02:39:39;100399.13;;;6.69;100.00
35435;BME280;21556;55.782;37.528;2023-05-02T02:42:12;100409.28;;;6.83;100.00
35435;BME280;21556;55.782;37.528;2023-05-02T02:44:51;100413.88;;;6.90;100.00
35435;BME280;21556;55.782;37.528;2023-05-02T02:47:49;100408.66;;;6.90;100.00
35435;BME280;21556;55.782;37.528;2023-05-02T02:53:08;100418.59;;;6.78;100.00
35435;BME280;21556;55.782;37.528;2023-05-02T02:55:47;100423.94;;;6.81;100.00
35435;BME280;21556;55.782;37.528;2023-05-02T02:58:26;100420.59;;;6.83;100.00
35435;BME280;21556;55.782;37.528;2023-05-02T03:00:55;100422.94;;;6.98;100.00
35435;BME280;21556;55.782;37.528;2023-05-02T03:03:23;100424.53;;;6.94;100.00
35435;BME280;21556;55.782;37.528;2023-05-02T03:05:54;100419.09;;;6.90;100.00
35435;BME280;21556;55.782;37.528;2023-05-02T03:08:23;100421.03;;;6.94;100.00
35435;BME280;21556;55.782;37.528;2023-05-02T03:10:49;100423.84;;;6.98;100.00
35435;BME280;21556;55.782;37.528;2023-05-02T03:13:15;100421.09;;;6.95;100.00
35435;BME280;21556;55.782;37.528;2023-05-02T03:18:49;100432.75;;;7.24;100.00
35435;BME280;21556;55.782;37.528;2023-05-02T03:21:15;100431.88;;;7.24;100.00
35435;BME280;21556;55.782;37.528;2023-05-02T03:23:42;100439.56;;;7.21;100.00
35435;BME280;21556;55.782;37.528;2023-05-02T03:26:08;100443.84;;;7.19;100.00
35435;BME280;21556;55.782;37.528;2023-05-02T03:28:36;100449.84;;;7.37;100.00
35435;BME280;21556;55.782;37.528;2023-05-02T03:31:03;100457.88;;;7.43;100.00
35435;BME280;21556;55.782;37.528;2023-05-02T03:33:33;100458.59;;;7.39;100.00
35435;BME280;21556;55.782;37.528;2023-05-02T03:36:00;100459.31;;;7.35;100.00
35435;BME280;21556;55.782;37.528;2023-05-02T03:38:28;100456.09;;;7.63;100.00
35435;BME280;21556;55.782;37.528;2023-05-02T03:40:58;100449.97;;;8.06;100.00
35435;BME280;21556;55.782;37.528;2023-05-02T03:43:24;100452.47;;;7.60;100.00
35435;BME280;21556;55.782;37.528;2023-05-02T03:45:51;100461.50;;;7.68;100.00
35435;BME280;21556;55.782;37.528;2023-05-02T03:48:18;100462.25;;;7.65;100.00
35435;BME280;21556;55.782;37.528;2023-05-02T03:50:44;100463.28;;;7.69;100.00
35435;BME280;21556;55.782;37.528;2023-05-02T03:53:10;100466.84;;;7.71;100.00
35435;BME280;21556;55.782;37.528;2023-05-02T03:55:47;100462.91;;;7.81;100.00
35435;BME280;21556;55.782;37.528;2023-05-02T03:58:22;100471.22;;;7.93;100.00
35435;BME280;21556;55.782;37.528;2023-05-02T04:00:51;100468.47;;;7.90;100.00
35435;BME280;21556;55.782;37.528;2023-05-02T04:03:19;100468.25;;;8.29;100.00
35435;BME280;21556;55.782;37.528;2023-05-02T04:05:46;100475.66;;;8.18;100.00
35435;BME280;21556;55.782;37.528;2023-05-02T04:08:14;100473.28;;;8.24;100.00
35435;BME280;21556;55.782;37.528;2023-05-02T04:10:42;100478.41;;;8.43;100.00
35435;BME280;21556;55.782;37.528;2023-05-02T04:13:10;100481.88;;;8.42;100.00
35435;BME280;21556;55.782;37.528;2023-05-02T04:15:40;100482.88;;;8.46;100.00
35435;BME280;21556;55.782;37.528;2023-05-02T04:18:06;100485.97;;;8.60;100.00
35435;BME280;21556;55.782;37.528;2023-05-02T04:20:37;100485.84;;;8.57;100.00
35435;BME280;21556;55.782;37.528;2023-05-02T04:23:06;100487.09;;;8.90;100.00
35435;BME280;21556;55.782;37.528;2023-05-02T04:25:33;100490.84;;;8.97;100.00
35435;BME280;21556;55.782;37.528;2023-05-02T04:28:01;100501.00;;;9.13;100.00
35435;BME280;21556;55.782;37.528;2023-05-02T04:30:28;100485.91;;;9.32;100.00
35435;BME280;21556;55.782;37.528;2023-05-02T04:33:00;100490.53;;;9.39;100.00
35435;BME280;21556;55.782;37.528;2023-05-02T04:35:30;100498.56;;;9.71;100.00
35435;BME280;21556;55.782;37.528;2023-05-02T04:37:56;100491.59;;;9.71;100.00
35435;BME280;21556;55.782;37.528;2023-05-02T04:40:22;100503.03;;;9.73;100.00
35435;BME280;21556;55.782;37.528;2023-05-02T04:42:54;100501.06;;;9.95;100.00
35435;BME280;21556;55.782;37.528;2023-05-02T04:45:23;100495.41;;;9.81;100.00
35435;BME280;21556;55.782;37.528;2023-05-02T04:47:50;100497.78;;;10.00;100.00
35435;BME280;21556;55.782;37.528;2023-05-02T04:50:19;100509.69;;;9.91;100.00
35435;BME280;21556;55.782;37.528;2023-05-02T04:52:45;100511.72;;;9.99;100.00
35435;BME280;21556;55.782;37.528;2023-05-02T04:55:15;100518.63;;;9.97;100.00
35435;BME280;21556;55.782;37.528;2023-05-02T04:57:43;100515.91;;;10.21;100.00
35435;BME280;21556;55.782;37.528;2023-05-02T05:00:13;100507.31;;;9.98;100.00
35435;BME280;21556;55.782;37.528;2023-05-02T05:02:39;100518.44;;;9.91;100.00
35435;BME280;21556;55.782;37.528;2023-05-02T05:05:05;100514.78;;;10.13;100.00
35435;BME280;21556;55.782;37.528;2023-05-02T05:07:32;100522.16;;;10.25;100.00
35435;BME280;21556;55.782;37.528;2023-05-02T05:09:58;100518.19;;;10.38;100.00
35435;BME280;21556;55.782;37.528;2023-05-02T05:12:28;100524.56;;;10.46;100.00
35435;BME280;21556;55.782;37.528;2023-05-02T05:14:54;100516.97;;;10.55;100.00
35435;BME280;21556;55.782;37.528;2023-05-02T05:17:23;100517.91;;;10.57;100.00
35435;BME280;21556;55.782;37.528;2023-05-02T05:19:48;100520.03;;;10.70;100.00
35435;BME280;21556;55.782;37.528;2023-05-02T05:22:14;100524.44;;;10.71;100.00
35435;BME280;21556;55.782;37.528;2023-05-02T05:24:41;100521.56;;;10.64;100.00
35435;BME280;21556;55.782;37.528;2023-05-02T05:27:06;100523.44;;;10.98;100.00
35435;BME280;21556;55.782;37.528;2023-05-02T05:29:33;100521.72;;;10.98;100.00
35435;BME280;21556;55.782;37.528;2023-05-02T05:31:58;100530.03;;;10.83;100.00
35435;BME280;21556;55.782;37.528;2023-05-02T05:34:24;100519.97;;;11.32;100.00
35435;BME280;21556;55.782;37.528;2023-05-02T05:36:54;100520.75;;;11.61;100.00
35435;BME280;21556;55.782;37.528;2023-05-02T05:39:21;100518.78;;;11.87;100.00
35435;BME280;21556;55.782;37.528;2023-05-02T05:41:49;100516.88;;;11.81;100.00
35435;BME280;21556;55.782;37.528;2023-05-02T05:44:16;100521.28;;;12.17;100.00
35435;BME280;21556;55.782;37.528;2023-05-02T05:46:43;100513.53;;;12.64;100.00
35435;BME280;21556;55.782;37.528;2023-05-02T05:49:10;100512.31;;;12.91;100.00
35435;BME280;21556;55.782;37.528;2023-05-02T05:51:38;100517.34;;;12.79;100.00
35435;BME280;21556;55.782;37.528;2023-05-02T05:54:04;100515.19;;;13.03;100.00
35435;BME280;21556;55.782;37.528;2023-05-02T05:56:30;100515.09;;;12.98;100.00
35435;BME280;21556;55.782;37.528;2023-05-02T05:59:04;100508.84;;;13.37;100.00
35435;BME280;21556;55.782;37.528;2023-05-02T06:01:31;100510.34;;;13.24;97.82
35435;BME280;21556;55.782;37.528;2023-05-02T06:04:03;100518.34;;;12.85;96.57
35435;BME280;21556;55.782;37.528;2023-05-02T06:06:30;100509.44;;;13.22;96.35
35435;BME280;21556;55.782;37.528;2023-05-02T06:08:59;100506.38;;;13.46;93.07
35435;BME280;21556;55.782;37.528;2023-05-02T06:11:25;100513.56;;;13.55;92.32
35435;BME280;21556;55.782;37.528;2023-05-02T06:13:54;100505.50;;;14.01;82.31
35435;BME280;21556;55.782;37.528;2023-05-02T06:16:20;100511.59;;;14.54;79.21
35435;BME280;21556;55.782;37.528;2023-05-02T06:18:46;100510.66;;;14.51;70.92
35435;BME280;21556;55.782;37.528;2023-05-02T06:21:14;100505.03;;;14.29;66.41
35435;BME280;21556;55.782;37.528;2023-05-02T06:23:40;100507.06;;;14.47;72.71
35435;BME280;21556;55.782;37.528;2023-05-02T06:26:06;100501.91;;;14.53;68.01
35435;BME280;21556;55.782;37.528;2023-05-02T06:28:32;100508.47;;;14.86;70.84
35435;BME280;21556;55.782;37.528;2023-05-02T06:31:02;100503.53;;;14.47;69.28
35435;BME280;21556;55.782;37.528;2023-05-02T06:33:32;100504.97;;;13.65;62.37
35435;BME280;21556;55.782;37.528;2023-05-02T06:35:58;100506.88;;;14.33;55.01
35435;BME280;21556;55.782;37.528;2023-05-02T06:38:25;100503.28;;;14.93;54.41
35435;BME280;21556;55.782;37.528;2023-05-02T06:40:52;100507.03;;;15.15;54.72
35435;BME280;21556;55.782;37.528;2023-05-02T06:43:18;100504.19;;;15.85;53.60
35435;BME280;21556;55.782;37.528;2023-05-02T06:45:44;100498.84;;;15.79;51.15
35435;BME280;21556;55.782;37.528;2023-05-02T06:48:10;100496.59;;;16.36;52.26
35435;BME280;21556;55.782;37.528;2023-05-02T06:50:36;100496.19;;;15.78;43.25
35435;BME280;21556;55.782;37.528;2023-05-02T06:53:08;100489.16;;;15.83;41.45
35435;BME280;21556;55.782;37.528;2023-05-02T06:55:34;100500.78;;;15.99;41.53
35435;BME280;21556;55.782;37.528;2023-05-02T06:57:59;100492.97;;;16.20;38.33
35435;BME280;21556;55.782;37.528;2023-05-02T07:00:28;100488.81;;;16.70;36.48
35435;BME280;21556;55.782;37.528;2023-05-02T07:02:53;100488.94;;;16.91;36.92
35435;BME280;21556;55.782;37.528;2023-05-02T07:05:19;100487.25;;;17.15;35.76
35435;BME280;21556;55.782;37.528;2023-05-02T07:07:46;100486.41;;;18.14;32.68
35435;BME280;21556;55.782;37.528;2023-05-02T07:10:12;100478.44;;;18.09;30.89
35435;BME280;21556;55.782;37.528;2023-05-02T07:12:38;100479.94;;;18.91;32.73
35435;BME280;21556;55.782;37.528;2023-05-02T07:15:06;100471.19;;;18.65;28.94
35435;BME280;21556;55.782;37.528;2023-05-02T07:17:32;100477.41;;;18.61;29.61
35435;BME280;21556;55.782;37.528;2023-05-02T07:19:59;100479.03;;;19.03;31.31
35435;BME280;21556;55.782;37.528;2023-05-02T07:22:25;100468.03;;;20.52;29.13
35435;BME280;21556;55.782;37.528;2023-05-02T07:24:57;100461.72;;;20.58;27.37
35435;BME280;21556;55.782;37.528;2023-05-02T07:27:25;100470.78;;;20.41;29.12
35435;BME280;21556;55.782;37.528;2023-05-02T07:29:51;100471.59;;;19.53;28.77
35435;BME280;21556;55.782;37.528;2023-05-02T07:32:16;100472.69;;;20.30;28.35
35435;BME280;21556;55.782;37.528;2023-05-02T07:34:43;100472.59;;;20.38;28.89
35435;BME280;21556;55.782;37.528;2023-05-02T07:37:08;100467.75;;;20.74;28.21
35435;BME280;21556;55.782;37.528;2023-05-02T07:39:35;100463.22;;;20.79;28.29
35435;BME280;21556;55.782;37.528;2023-05-02T07:42:01;100463.00;;;20.23;27.50
35435;BME280;21556;55.782;37.528;2023-05-02T07:44:28;100455.50;;;21.22;28.20
35435;BME280;21556;55.782;37.528;2023-05-02T07:46:54;100459.41;;;20.98;27.29
35435;BME280;21556;55.782;37.528;2023-05-02T07:49:20;100456.47;;;21.74;26.15
35435;BME280;21556;55.782;37.528;2023-05-02T07:51:47;100452.84;;;21.22;25.33
35435;BME280;21556;55.782;37.528;2023-05-02T07:54:18;100450.13;;;21.82;26.22
35435;BME280;21556;55.782;37.528;2023-05-02T07:56:44;100451.13;;;21.18;26.47
35435;BME280;21556;55.782;37.528;2023-05-02T07:59:10;100451.06;;;21.23;26.70
35435;BME280;21556;55.782;37.528;2023-05-02T08:01:41;100456.56;;;21.68;26.58
35435;BME280;21556;55.782;37.528;2023-05-02T08:04:07;100447.66;;;21.11;26.10
35435;BME280;21556;55.782;37.528;2023-05-02T08:06:34;100451.31;;;21.65;25.30
35435;BME280;21556;55.782;37.528;2023-05-02T08:09:01;100441.59;;;22.56;24.73
35435;BME280;21556;55.782;37.528;2023-05-02T08:11:27;100447.50;;;21.79;25.01
35435;BME280;21556;55.782;37.528;2023-05-02T08:13:53;100451.25;;;21.10;25.06
35435;BME280;21556;55.782;37.528;2023-05-02T08:16:19;100449.09;;;21.37;25.76
35435;BME280;21556;55.782;37.528;2023-05-02T08:18:45;100444.78;;;20.62;25.83
35435;BME280;21556;55.782;37.528;2023-05-02T08:21:11;100445.03;;;21.10;25.64
35435;BME280;21556;55.782;37.528;2023-05-02T08:23:39;100446.50;;;20.67;25.65
35435;BME280;21556;55.782;37.528;2023-05-02T08:26:08;100449.22;;;20.61;25.79
35435;BME280;21556;55.782;37.528;2023-05-02T08:28:35;100443.88;;;21.26;25.21
35435;BME280;21556;55.782;37.528;2023-05-02T08:31:01;100436.34;;;22.04;24.12
35435;BME280;21556;55.782;37.528;2023-05-02T08:33:27;100439.31;;;22.37;24.65
35435;BME280;21556;55.782;37.528;2023-05-02T08:35:53;100442.25;;;21.73;25.12
35435;BME280;21556;55.782;37.528;2023-05-02T08:38:20;100438.53;;;21.26;25.40
35435;BME280;21556;55.782;37.528;2023-05-02T08:40:46;100436.53;;;21.93;25.73
35435;BME280;21556;55.782;37.528;2023-05-02T08:43:12;100443.19;;;20.46;25.28
35435;BME280;21556;55.782;37.528;2023-05-02T08:45:43;100431.19;;;20.80;25.08
35435;BME280;21556;55.782;37.528;2023-05-02T08:48:15;100433.81;;;21.45;25.05
35435;BME280;21556;55.782;37.528;2023-05-02T08:50:44;100436.94;;;21.13;25.54
35435;BME280;21556;55.782;37.528;2023-05-02T08:53:12;100438.06;;;21.00;26.85
35435;BME280;21556;55.782;37.528;2023-05-02T08:55:42;100430.88;;;22.10;24.36
35435;BME280;21556;55.782;37.528;2023-05-02T08:58:08;100431.00;;;20.94;25.04
35435;BME280;21556;55.782;37.528;2023-05-02T09:00:40;100429.59;;;22.32;24.19
35435;BME280;21556;55.782;37.528;2023-05-02T09:03:30;100434.47;;;21.61;24.76
35435;BME280;21556;55.782;37.528;2023-05-02T09:06:17;100425.47;;;22.15;24.32
35435;BME280;21556;55.782;37.528;2023-05-02T09:08:47;100432.56;;;22.17;24.54
35435;BME280;21556;55.782;37.528;2023-05-02T09:11:19;100422.63;;;21.20;24.87
35435;BME280;21556;55.782;37.528;2023-05-02T09:13:50;100423.75;;;22.10;24.29
35435;BME280;21556;55.782;37.528;2023-05-02T09:16:27;100411.63;;;22.41;23.64
35435;BME280;21556;55.782;37.528;2023-05-02T09:18:57;100415.41;;;21.82;23.80
35435;BME280;21556;55.782;37.528;2023-05-02T09:21:24;100420.41;;;22.46;23.78
35435;BME280;21556;55.782;37.528;2023-05-02T09:23:54;100416.19;;;21.36;24.18
35435;BME280;21556;55.782;37.528;2023-05-02T09:26:23;100414.22;;;21.97;23.66
35435;BME280;21556;55.782;37.528;2023-05-02T09:29:00;100411.31;;;22.09;23.98
35435;BME280;21556;55.782;37.528;2023-05-02T09:31:31;100419.53;;;21.99;24.42
35435;BME280;21556;55.782;37.528;2023-05-02T09:34:10;100408.25;;;22.29;24.04
35435;BME280;21556;55.782;37.528;2023-05-02T09:36:44;100403.13;;;21.71;22.80
35435;BME280;21556;55.782;37.528;2023-05-02T09:39:12;100397.63;;;21.78;23.22
35435;BME280;21556;55.782;37.528;2023-05-02T09:41:39;100401.91;;;21.39;23.78
35435;BME280;21556;55.782;37.528;2023-05-02T09:44:09;100397.72;;;21.74;23.22
35435;BME280;21556;55.782;37.528;2023-05-02T09:46:48;100409.69;;;21.51;23.81
35435;BME280;21556;55.782;37.528;2023-05-02T09:49:16;100400.50;;;21.12;23.46
35435;BME280;21556;55.782;37.528;2023-05-02T09:51:46;100395.63;;;21.42;23.90
35435;BME280;21556;55.782;37.528;2023-05-02T09:54:13;100390.81;;;22.11;23.09
35435;BME280;21556;55.782;37.528;2023-05-02T09:56:54;100383.91;;;22.43;22.37
35435;BME280;21556;55.782;37.528;2023-05-02T09:59:23;100366.53;;;22.64;21.41
35435;BME280;21556;55.782;37.528;2023-05-02T10:01:58;100382.94;;;23.26;21.83
35435;BME280;21556;55.782;37.528;2023-05-02T10:04:25;100385.50;;;21.60;23.01
35435;BME280;21556;55.782;37.528;2023-05-02T10:06:52;100373.34;;;23.18;22.32
35435;BME280;21556;55.782;37.528;2023-05-02T10:09:21;100384.56;;;22.54;23.48
35435;BME280;21556;55.782;37.528;2023-05-02T10:11:55;100383.63;;;22.15;23.10
35435;BME280;21556;55.782;37.528;2023-05-02T10:14:22;100368.88;;;23.18;21.28
35435;BME280;21556;55.782;37.528;2023-05-02T10:16:52;100370.63;;;22.40;22.38
35435;BME280;21556;55.782;37.528;2023-05-02T10:19:28;100369.06;;;22.30;22.29
35435;BME280;21556;55.782;37.528;2023-05-02T10:21:55;100350.53;;;23.39;21.06
35435;BME280;21556;55.782;37.528;2023-05-02T10:24:23;100370.53;;;22.00;22.96
35435;BME280;21556;55.782;37.528;2023-05-02T10:26:50;100368.06;;;21.91;22.40
35435;BME280;21556;55.782;37.528;2023-05-02T10:29:17;100372.69;;;22.27;23.24
35435;BME280;21556;55.782;37.528;2023-05-02T10:31:44;100349.75;;;22.57;22.01
35435;BME280;21556;55.782;37.528;2023-05-02T10:34:10;100350.69;;;22.13;22.24
35435;BME280;21556;55.782;37.528;2023-05-02T10:36:37;100337.31;;;23.31;21.53
35435;BME280;21556;55.782;37.528;2023-05-02T10:39:05;100346.94;;;23.38;21.71
35435;BME280;21556;55.782;37.528;2023-05-02T10:41:33;100345.78;;;22.75;22.93
35435;BME280;21556;55.782;37.528;2023-05-02T10:43:59;100354.72;;;21.41;23.69
35435;BME280;21556;55.782;37.528;2023-05-02T10:46:33;100353.00;;;20.81;24.68
35435;BME280;21556;55.782;37.528;2023-05-02T10:49:05;100359.28;;;20.77;23.79
35435;BME280;21556;55.782;37.528;2023-05-02T10:51:32;100369.50;;;19.66;25.34
35435;BME280;21556;55.782;37.528;2023-05-02T10:54:17;100362.97;;;19.94;24.39
35435;BME280;21556;55.782;37.528;2023-05-02T10:57:04;100362.72;;;20.14;24.56
35435;BME280;21556;55.782;37.528;2023-05-02T10:59:41;100362.75;;;20.11;25.50
35435;BME280;21556;55.782;37.528;2023-05-02T11:05:03;100362.44;;;19.56;25.52
35435;BME280;21556;55.782;37.528;2023-05-02T11:07:36;100363.75;;;19.09;25.72
35435;BME280;21556;55.782;37.528;2023-05-02T11:12:52;100361.81;;;19.29;26.04
35435;BME280;21556;55.782;37.528;2023-05-02T11:18:03;100357.47;;;19.16;26.09
35435;BME280;21556;55.782;37.528;2023-05-02T11:20:33;100352.28;;;19.04;25.74
35435;BME280;21556;55.782;37.528;2023-05-02T11:25:47;100350.41;;;19.12;25.98
35435;BME280;21556;55.782;37.528;2023-05-02T11:34:01;100343.38;;;19.06;26.01
35435;BME280;21556;55.782;37.528;2023-05-02T11:36:31;100346.94;;;19.07;26.47
35435;BME280;21556;55.782;37.528;2023-05-02T11:38:59;100337.47;;;18.55;27.10
35435;BME280;21556;55.782;37.528;2023-05-02T11:41:41;100332.50;;;19.34;26.25
35435;BME280;21556;55.782;37.528;2023-05-02T11:44:07;100325.22;;;19.53;26.10
35435;BME280;21556;55.782;37.528;2023-05-02T11:46:37;100326.38;;;19.24;26.25
35435;BME280;21556;55.782;37.528;2023-05-02T11:49:04;100331.84;;;19.07;26.72
35435;BME280;21556;55.782;37.528;2023-05-02T11:51:30;100332.78;;;18.98;27.01
35435;BME280;21556;55.782;37.528;2023-05-02T11:53:56;100323.13;;;19.85;25.41
35435;BME280;21556;55.782;37.528;2023-05-02T11:56:23;100317.13;;;19.66;25.18
35435;BME280;21556;55.782;37.528;2023-05-02T11:58:57;100320.50;;;18.88;25.53
35435;BME280;21556;55.782;37.528;2023-05-02T12:01:23;100319.13;;;19.41;25.10
35435;BME280;21556;55.782;37.528;2023-05-02T12:04:00;100314.03;;;19.18;26.06
35435;BME280;21556;55.782;37.528;2023-05-02T12:06:27;100310.91;;;19.67;25.41
35435;BME280;21556;55.782;37.528;2023-05-02T12:09:05;100297.00;;;19.39;25.33
35435;BME280;21556;55.782;37.528;2023-05-02T12:11:31;100312.63;;;19.71;25.36
35435;BME280;21556;55.782;37.528;2023-05-02T12:13:56;100298.03;;;19.21;24.84
35435;BME280;21556;55.782;37.528;2023-05-02T12:16:22;100289.34;;;19.89;24.94
35435;BME280;21556;55.782;37.528;2023-05-02T12:18:48;100302.00;;;18.71;26.09
35435;BME280;21556;55.782;37.528;2023-05-02T12:21:15;100289.69;;;19.57;25.86
35435;BME280;21556;55.782;37.528;2023-05-02T12:23:42;100300.53;;;19.35;26.27
35435;BME280;21556;55.782;37.528;2023-05-02T12:26:25;100294.38;;;19.33;26.26
35435;BME280;21556;55.782;37.528;2023-05-02T12:28:56;100287.81;;;19.68;25.50
35435;BME280;21556;55.782;37.528;2023-05-02T12:31:24;100292.66;;;19.29;27.96
35435;BME280;21556;55.782;37.528;2023-05-02T12:33:50;100283.19;;;18.94;26.60
35435;BME280;21556;55.782;37.528;2023-05-02T12:36:19;100286.47;;;19.24;27.14
35435;BME280;21556;55.782;37.528;2023-05-02T12:38:51;100289.31;;;19.04;27.23
35435;BME280;21556;55.782;37.528;2023-05-02T12:41:32;100285.59;;;19.23;26.84
35435;BME280;21556;55.782;37.528;2023-05-02T12:43:59;100288.38;;;19.10;27.89
35435;BME280;21556;55.782;37.528;2023-05-02T12:46:27;100293.91;;;18.85;27.26
35435;BME280;21556;55.782;37.528;2023-05-02T12:49:06;100277.28;;;18.56;27.01
35435;BME280;21556;55.782;37.528;2023-05-02T12:51:39;100284.22;;;18.81;27.14
35435;BME280;21556;55.782;37.528;2023-05-02T12:54:06;100285.72;;;19.11;27.25
35435;BME280;21556;55.782;37.528;2023-05-02T12:56:39;100279.53;;;19.11;26.28
35435;BME280;21556;55.782;37.528;2023-05-02T12:59:05;100275.16;;;19.04;26.53
35435;BME280;21556;55.782;37.528;2023-05-02T13:01:32;100278.78;;;18.93;28.13
35435;BME280;21556;55.782;37.528;2023-05-02T13:03:59;100274.28;;;18.98;27.14
35435;BME280;21556;55.782;37.528;2023-05-02T13:06:24;100270.50;;;19.24;26.92
35435;BME280;21556;55.782;37.528;2023-05-02T13:08:50;100268.28;;;18.78;26.98
35435;BME280;21556;55.782;37.528;2023-05-02T13:11:17;100269.41;;;18.36;27.29
35435;BME280;21556;55.782;37.528;2023-05-02T13:13:43;100269.50;;;19.37;26.51
35435;BME280;21556;55.782;37.528;2023-05-02T13:16:09;100265.19;;;19.24;25.79
35435;BME280;21556;55.782;37.528;2023-05-02T13:18:35;100268.66;;;19.34;26.11
35435;BME280;21556;55.782;37.528;2023-05-02T13:21:03;100265.09;;;19.35;26.66
35435;BME280;21556;55.782;37.528;2023-05-02T13:23:29;100266.13;;;19.21;27.57
35435;BME280;21556;55.782;37.528;2023-05-02T13:25:55;100263.47;;;19.21;27.37